createdAt,value
2018-11-22T00:02:30.334Z,0.64
2018-11-22T00:07:37.944Z,0.66
2018-11-22T00:12:45.022Z,0.64
2018-11-22T00:17:52.933Z,0.64
2018-11-22T00:23:00.014Z,0.65
2018-11-22T00:28:07.029Z,0.65
2018-11-22T00:33:14.637Z,0.63
2018-11-22T00:38:22.016Z,0.64
2018-11-22T00:43:29.295Z,0.65
2018-11-22T00:48:36.512Z,0.66
2018-11-22T00:53:44.232Z,0.65
2018-11-22T00:58:51.492Z,0.65
2018-11-22T01:03:58.869Z,0.67
2018-11-22T01:09:10.289Z,0.67
2018-11-22T01:14:17.791Z,0.65
2018-11-22T01:19:26.080Z,0.66
2018-11-22T01:24:33.065Z,0.64
2018-11-22T01:29:40.052Z,0.66
2018-11-22T01:34:47.208Z,0.66
2018-11-22T01:39:54.396Z,0.67
2018-11-22T01:45:01.467Z,0.67
2018-11-22T01:50:10.531Z,0.67
2018-11-22T01:55:19.280Z,0.67
2018-11-22T02:00:27.497Z,0.68
2018-11-22T02:05:34.489Z,0.70
2018-11-22T02:10:42.043Z,0.68
2018-11-22T02:15:49.355Z,0.70
2018-11-22T02:20:57.280Z,0.69
2018-11-22T02:26:04.415Z,0.70
2018-11-22T02:31:11.699Z,0.72
2018-11-22T02:36:18.832Z,0.72
2018-11-22T02:41:26.685Z,0.72
2018-11-22T02:46:33.701Z,0.70
2018-11-22T02:51:42.271Z,0.69
2018-11-22T02:56:50.057Z,0.66
2018-11-22T03:01:58.210Z,0.67
2018-11-22T03:07:05.290Z,0.68
2018-11-22T03:12:12.365Z,0.67
2018-11-22T03:17:19.744Z,0.65
2018-11-22T03:22:26.721Z,0.66
2018-11-22T03:27:34.774Z,0.67
2018-11-22T03:32:42.185Z,0.68
2018-11-22T03:37:49.574Z,0.66
2018-11-22T03:42:56.918Z,0.67
2018-11-22T03:48:04.253Z,0.68
2018-11-22T03:53:11.316Z,0.69
2018-11-22T03:58:18.306Z,0.69
2018-11-22T04:03:25.720Z,0.69
2018-11-22T04:08:32.711Z,0.73
2018-11-22T04:13:40.054Z,0.71
2018-11-22T04:18:47.012Z,0.76
2018-11-22T04:23:55.034Z,0.77
2018-11-22T04:29:02.467Z,0.76
2018-11-22T04:34:09.452Z,0.76
2018-11-22T04:39:17.371Z,0.74
2018-11-22T04:44:24.544Z,0.77
2018-11-22T04:49:31.703Z,0.77
2018-11-22T04:54:38.705Z,0.78
2018-11-22T04:59:45.687Z,0.83
2018-11-22T05:04:52.746Z,0.83
2018-11-22T05:09:59.735Z,0.82
2018-11-22T05:15:07.571Z,0.86
2018-11-22T05:20:15.826Z,0.83
2018-11-22T05:25:24.004Z,0.84
2018-11-22T05:30:31.262Z,0.85
2018-11-22T05:35:38.221Z,0.85
2018-11-22T05:40:46.024Z,0.87
2018-11-22T05:45:53.617Z,0.87
2018-11-22T05:51:02.482Z,0.88
2018-11-22T05:56:09.791Z,0.92
2018-11-22T06:01:17.123Z,0.92
2018-11-22T06:06:25.033Z,0.93
2018-11-22T06:11:32.098Z,0.94
2018-11-22T06:16:39.183Z,0.93
2018-11-22T06:21:46.855Z,0.96
2018-11-22T06:26:54.203Z,0.98
2018-11-22T06:32:01.174Z,0.96
2018-11-22T06:37:08.216Z,0.94
2018-11-22T06:42:15.471Z,0.94
2018-11-22T06:47:22.755Z,0.93
2018-11-22T06:52:29.713Z,0.90
2018-11-22T06:57:36.776Z,0.90
2018-11-22T07:02:43.738Z,0.90
2018-11-22T07:07:51.719Z,0.93
2018-11-22T07:13:00.434Z,0.93
2018-11-22T07:18:07.406Z,0.94
2018-11-22T07:23:14.357Z,0.94
2018-11-22T07:28:21.424Z,0.97
2018-11-22T07:33:29.566Z,0.99
2018-11-22T07:38:36.438Z,1.00
2018-11-22T07:43:44.177Z,1.03
2018-11-22T07:48:53.325Z,1.07
2018-11-22T07:54:00.641Z,1.06
2018-11-22T07:59:08.232Z,1.05
2018-11-22T08:04:15.107Z,1.07
2018-11-22T08:09:22.067Z,1.08
2018-11-22T08:14:29.504Z,1.15
2018-11-22T08:19:36.908Z,1.20
2018-11-22T08:24:44.182Z,1.19
2018-11-22T08:29:51.057Z,1.24
2018-11-22T08:34:57.948Z,1.28
2018-11-22T08:40:07.294Z,1.32
2018-11-22T08:45:15.565Z,1.32
2018-11-22T08:50:25.308Z,1.39
2018-11-22T08:55:32.290Z,1.43
2018-11-22T09:00:39.253Z,1.44
2018-11-22T09:05:46.195Z,1.46
2018-11-22T09:10:53.143Z,1.53
2018-11-22T09:16:00.101Z,1.61
2018-11-22T09:21:07.681Z,1.62
2018-11-22T09:26:15.126Z,1.75
2018-11-22T09:31:22.069Z,1.80
2018-11-22T09:36:29.444Z,1.83
2018-11-22T09:41:36.786Z,1.88
2018-11-22T09:46:44.152Z,1.93
2018-11-22T09:51:51.363Z,1.97
2018-11-22T09:56:58.618Z,1.97
2018-11-22T10:02:06.083Z,1.99
2018-11-22T10:07:13.445Z,1.99
2018-11-22T10:12:20.450Z,2.01
2018-11-22T10:17:27.289Z,2.06
2018-11-22T10:22:34.702Z,2.04
2018-11-22T10:27:42.043Z,2.02
2018-11-22T12:19:08.355Z,2.92
2018-11-22T12:24:10.643Z,2.85
2018-11-22T12:29:13.303Z,2.82
2018-11-22T12:34:20.319Z,2.82
2018-11-22T12:39:22.345Z,2.81
2018-11-22T12:44:24.726Z,2.84
2018-11-22T12:49:27.113Z,2.85
2018-11-22T12:54:29.474Z,2.93
2018-11-22T12:59:31.773Z,2.94
2018-11-22T13:04:34.064Z,2.96
2018-11-22T13:09:36.371Z,2.95
2018-11-22T13:14:38.826Z,2.93
2018-11-22T13:19:41.220Z,2.89
2018-11-22T13:24:43.489Z,2.88
2018-11-22T13:29:45.873Z,2.88
2018-11-22T13:34:48.201Z,2.89
2018-11-22T13:39:50.487Z,2.85
2018-11-22T13:44:52.858Z,2.83
2018-11-22T13:49:55.204Z,2.82
2018-11-22T13:54:57.588Z,2.79
2018-11-22T14:00:00.006Z,2.80
2018-11-22T14:05:02.316Z,2.78
2018-11-22T14:10:06.983Z,2.73
2018-11-22T14:15:12.277Z,2.72
2018-11-22T14:20:15.993Z,2.68
2018-11-22T14:25:18.286Z,2.65
2018-11-22T14:30:25.293Z,2.64
2018-11-22T14:35:27.760Z,2.61
2018-11-22T14:40:31.498Z,2.62
2018-11-22T14:45:33.866Z,2.61
2018-11-22T14:50:38.214Z,2.59
2018-11-22T14:55:40.641Z,2.56
2018-11-22T15:00:42.979Z,2.57
2018-11-22T15:05:45.361Z,2.53
2018-11-22T15:10:47.734Z,2.49
2018-11-22T15:15:50.176Z,2.48
2018-11-22T15:20:52.791Z,2.46
2018-11-22T15:25:56.198Z,2.45
2018-11-22T15:30:58.537Z,2.40
2018-11-22T15:36:00.859Z,2.41
2018-11-22T15:41:03.159Z,2.40
2018-11-22T15:46:05.722Z,2.38
2018-11-22T15:51:09.136Z,2.37
2018-11-22T15:56:11.608Z,2.40
2018-11-22T16:01:14.182Z,2.40
2018-11-22T16:06:17.659Z,2.37
2018-11-22T16:11:20.027Z,2.39
2018-11-22T16:16:22.586Z,2.41
2018-11-22T16:21:26.194Z,2.43
2018-11-22T16:26:29.094Z,2.42
2018-11-22T16:31:31.693Z,2.43
2018-11-22T16:36:34.315Z,2.43
2018-11-22T16:41:37.234Z,2.44
2018-11-22T16:46:39.876Z,2.44
2018-11-22T16:51:42.398Z,2.45
2018-11-22T16:56:45.755Z,2.47
2018-11-22T17:01:48.119Z,2.48
2018-11-22T17:06:50.439Z,2.50
2018-11-22T17:11:52.782Z,2.51
2018-11-22T17:16:55.160Z,2.51
2018-11-22T17:21:57.468Z,2.53
2018-11-22T17:27:00.867Z,2.54
2018-11-22T17:32:03.276Z,2.56
2018-11-22T17:37:05.633Z,2.56
2018-11-22T17:42:07.999Z,2.57
2018-11-22T17:47:10.353Z,2.56
2018-11-22T17:57:12.732Z,2.51
2018-11-22T18:02:15.163Z,2.53
2018-11-22T18:07:19.311Z,2.52
2018-11-22T18:12:21.633Z,2.53
2018-11-22T18:17:24.027Z,2.48
2018-11-22T18:22:26.284Z,2.43
2018-11-22T18:27:28.648Z,2.42
2018-11-22T18:32:31.722Z,2.40
2018-11-22T18:37:34.103Z,2.40
2018-11-22T18:42:36.484Z,2.36
2018-11-22T18:47:39.207Z,2.33
2018-11-22T18:52:41.804Z,2.31
2018-11-22T18:57:44.792Z,2.30
2018-11-22T19:02:47.858Z,2.32
2018-11-22T19:07:52.696Z,2.33
2018-11-22T19:12:57.858Z,2.35
2018-11-22T19:18:01.772Z,2.34
2018-11-22T19:23:06.174Z,2.33
2018-11-22T19:28:09.551Z,2.33
2018-11-22T19:33:13.533Z,2.37
2018-11-22T19:38:15.877Z,2.37
2018-11-22T19:43:18.244Z,2.39
2018-11-22T19:48:20.580Z,2.36
2018-11-22T19:53:22.841Z,2.36
2018-11-22T19:58:25.258Z,2.37
2018-11-22T20:03:27.538Z,2.40
2018-11-22T20:08:29.990Z,2.45
2018-11-22T20:13:33.049Z,2.48
2018-11-22T20:18:35.559Z,2.47
2018-11-22T20:23:37.861Z,2.48
2018-11-22T20:28:40.134Z,2.49
2018-11-22T20:33:43.138Z,2.48
2018-11-22T20:38:45.551Z,2.52
2018-11-22T20:43:49.211Z,2.54
2018-11-22T20:48:52.121Z,2.56
2018-11-22T20:53:54.698Z,2.57
2018-11-22T20:58:58.095Z,2.58
2018-11-22T21:04:01.050Z,2.54
2018-11-22T21:09:05.147Z,2.52
2018-11-22T21:14:08.139Z,2.52
2018-11-22T21:19:10.619Z,2.52
2018-11-22T21:24:13.873Z,2.58
2018-11-22T21:29:16.232Z,2.58
2018-11-22T21:34:18.625Z,2.60
2018-11-22T21:39:20.984Z,2.59
2018-11-22T21:44:23.255Z,2.60
2018-11-22T21:49:25.666Z,2.58
2018-11-22T21:54:28.106Z,2.54
2018-11-22T21:59:30.380Z,2.57
2018-11-22T22:04:32.667Z,2.54
2018-11-22T22:09:35.045Z,2.58
2018-11-22T22:14:37.397Z,2.54
2018-11-22T22:19:39.743Z,2.52
2018-11-22T22:24:42.018Z,2.52
2018-11-22T22:29:44.322Z,2.51
2018-11-22T22:34:46.638Z,2.52
2018-11-22T22:39:48.916Z,2.52
2018-11-22T22:44:51.216Z,2.50
2018-11-22T22:49:53.540Z,2.56
2018-11-22T22:54:55.963Z,2.57
2018-11-22T22:59:58.237Z,2.57
2018-11-22T23:05:00.603Z,2.54
2018-11-22T23:10:02.988Z,2.52
2018-11-22T23:15:08.233Z,2.54
2018-11-22T23:20:13.276Z,2.54
2018-11-22T23:25:16.684Z,2.54
2018-11-22T23:30:24.939Z,2.56
2018-11-22T23:35:27.237Z,2.53
2018-11-22T23:40:30.431Z,2.55
2018-11-22T23:45:33.159Z,2.57
2018-11-22T23:50:35.476Z,2.54
2018-11-22T23:55:37.754Z,2.55
